Terminal Aerodrome Forecast
Issued by NWS

Home | Current Version | Previous Version | Text Only | Print | Product List | Glossary On
Versions: 1 2 3 4 5 6 7 8 9 10 11 12 13 14 15 16 17
000
FTAK31 PAJN 191100
TAFAPG
TAF
PAPG 191130Z 1912/2012 23005KT P6SM -RA FEW015 BKN020 OVC030
     FM191600 VRB05KT P6SM SCT030 BKN060
     FM200300 07007KT P6SM BKN035 OVC050
     FM200700 08008KT 4SM -RA BKN030 OVC040
      AMD LTD TO CLD VIS AND WIND 1912/1915=

USA.gov is the U.S. government's official web portal to all federal, state and local government web resources and services.